Time;durP1;ratioP1;P1;durP2;ratioP2;P2;SDS_P1;SDS_P2;PMS_P1;PMS_P2;Temp;Humidity;BMP_temperature;BMP_pressure;BME280_temperature;BME280_humidity;BME280_pressure;Samples;Min_cycle;Max_cycle;Signal;HPM_P1;HPM_P2
2023/08/19 00:01:03;;;;;;;15.00;12.20;;;;;;;17.76;100.00;98223.49;109301;1252;74529;-80
2023/08/19 00:03:32;;;;;;;19.20;13.90;;;;;;;17.80;100.00;98223.98;109301;1253;72291;-82
2023/08/19 00:05:59;;;;;;;22.00;14.10;;;;;;;17.85;100.00;98222.17;109314;1253;71896;-81
2023/08/19 00:08:26;;;;;;;20.30;13.20;;;;;;;17.88;100.00;98220.20;109309;1253;59525;-81
2023/08/19 00:10:52;;;;;;;14.40;12.80;;;;;;;17.91;100.00;98220.13;109331;1253;58221;-81
2023/08/19 00:13:19;;;;;;;18.30;13.20;;;;;;;17.93;100.00;98217.53;109299;1253;58832;-81
2023/08/19 00:15:46;;;;;;;17.90;13.70;;;;;;;17.93;100.00;98219.34;109330;1253;69694;-81
2023/08/19 00:18:12;;;;;;;15.30;11.90;;;;;;;17.94;100.00;98214.92;109274;1252;58295;-80
2023/08/19 00:20:39;;;;;;;16.00;13.30;;;;;;;17.97;100.00;98215.23;109243;1253;58617;-80
2023/08/19 00:23:05;;;;;;;17.50;13.50;;;;;;;17.98;100.00;98213.86;109275;1253;58562;-81
2023/08/19 00:25:33;;;;;;;17.90;12.90;;;;;;;18.00;100.00;98212.92;109298;1253;72229;-81
2023/08/19 00:28:00;;;;;;;17.60;13.70;;;;;;;18.03;100.00;98210.96;109287;1252;69669;-81
2023/08/19 00:30:27;;;;;;;22.70;13.30;;;;;;;18.03;100.00;98214.70;109276;1253;73304;-81
2023/08/19 00:32:53;;;;;;;16.70;12.20;;;;;;;18.02;100.00;98218.57;109258;1253;59235;-81
2023/08/19 00:35:20;;;;;;;15.70;12.10;;;;;;;-128.00;-1.00;-1.00;105539;1253;1004375;-81
2023/08/19 00:37:46;;;;;;;18.60;13.20;;;;;;;-128.00;-1.00;-1.00;105515;1252;1004572;-81
2023/08/19 00:40:16;;;;;;;18.00;11.60;;;;;;;-128.00;-1.00;-1.00;105547;1253;1004681;-80
2023/08/19 00:42:43;;;;;;;17.70;12.80;;;;;;;-128.00;-1.00;-1.00;105287;1254;1059335;-80
2023/08/19 00:45:09;;;;;;;16.10;11.70;;;;;;;-128.00;-1.00;-1.00;105519;1253;1003937;-81
2023/08/19 00:47:36;;;;;;;19.10;11.70;;;;;;;-128.00;-1.00;-1.00;105417;1253;1004553;-80
2023/08/19 00:50:07;;;;;;;17.00;13.20;;;;;;;-128.00;-1.00;-1.00;105549;1253;1004358;-80
2023/08/19 00:52:33;;;;;;;18.80;12.80;;;;;;;-128.00;-1.00;-1.00;105506;1253;1058793;-80
2023/08/19 00:55:00;;;;;;;17.80;12.80;;;;;;;-128.00;-1.00;-1.00;105516;1253;1004362;-82
2023/08/19 00:57:26;;;;;;;22.40;13.40;;;;;;;-128.00;-1.00;-1.00;105384;1253;1003787;-82
2023/08/19 00:59:53;;;;;;;17.80;12.40;;;;;;;-128.00;-1.00;-1.00;105450;1253;1004119;-82
2023/08/19 01:02:20;;;;;;;20.50;13.20;;;;;;;-128.00;-1.00;-1.00;105510;1256;1004212;-81
2023/08/19 01:04:46;;;;;;;16.50;12.50;;;;;;;-128.00;-1.00;-1.00;105241;1253;1004404;-81
2023/08/19 01:07:21;;;;;;;16.10;11.00;;;;;;;-128.00;-1.00;-1.00;105509;1253;1005216;-80
2023/08/19 01:10:07;;;;;;;21.60;12.80;;;;;;;-128.00;-1.00;-1.00;105500;1254;1046117;-81
2023/08/19 01:12:42;;;;;;;16.80;12.40;;;;;;;-128.00;-1.00;-1.00;105572;1253;1046930;-81
2023/08/19 01:15:13;;;;;;;16.00;12.40;;;;;;;-128.00;-1.00;-1.00;105445;1252;1061567;-82
2023/08/19 01:17:39;;;;;;;19.60;12.00;;;;;;;-128.00;-1.00;-1.00;105572;1253;1057819;-81
2023/08/19 01:20:09;;;;;;;18.80;13.10;;;;;;;-128.00;-1.00;-1.00;105185;1254;1005286;-81
2023/08/19 01:22:39;;;;;;;13.80;11.50;;;;;;;-128.00;-1.00;-1.00;105437;1254;1045759;-81
2023/08/19 01:25:06;;;;;;;12.50;10.90;;;;;;;-128.00;-1.00;-1.00;105461;1254;1046840;-82
2023/08/19 01:27:33;;;;;;;15.20;12.40;;;;;;;-128.00;-1.00;-1.00;105436;1253;1004278;-81
2023/08/19 01:29:59;;;;;;;16.50;11.70;;;;;;;-128.00;-1.00;-1.00;105445;1253;1003665;-81
2023/08/19 01:32:26;;;;;;;20.20;11.40;;;;;;;-128.00;-1.00;-1.00;105442;1254;1004359;-83
2023/08/19 01:34:53;;;;;;;17.50;12.40;;;;;;;-128.00;-1.00;-1.00;105242;1254;1005173;-81
2023/08/19 01:37:41;;;;;;;16.00;12.10;;;;;;;-128.00;-1.00;-1.00;105288;1254;1004754;-80
2023/08/19 01:40:10;;;;;;;14.80;11.60;;;;;;;-128.00;-1.00;-1.00;105459;1253;1060582;-81
2023/08/19 01:42:36;;;;;;;14.40;11.20;;;;;;;-128.00;-1.00;-1.00;105446;1254;1057731;-81
2023/08/19 01:45:03;;;;;;;14.70;11.40;;;;;;;-128.00;-1.00;-1.00;105430;1253;1005362;-81
2023/08/19 01:47:30;;;;;;;17.50;11.40;;;;;;;-128.00;-1.00;-1.00;105278;1254;1004948;-81
2023/08/19 01:49:57;;;;;;;14.40;11.50;;;;;;;-128.00;-1.00;-1.00;105460;1253;1003766;-81
2023/08/19 01:52:23;;;;;;;14.90;11.10;;;;;;;-128.00;-1.00;-1.00;105428;1254;1004157;-81
2023/08/19 01:54:50;;;;;;;18.60;11.10;;;;;;;-128.00;-1.00;-1.00;105463;1253;1004280;-81
2023/08/19 01:57:16;;;;;;;15.00;11.80;;;;;;;-128.00;-1.00;-1.00;105428;1253;1004400;-81
2023/08/19 01:59:43;;;;;;;16.30;12.40;;;;;;;-128.00;-1.00;-1.00;105492;1254;1005225;-81
2023/08/19 02:02:09;;;;;;;17.60;12.30;;;;;;;-128.00;-1.00;-1.00;105449;1253;1004707;-81
2023/08/19 02:04:36;;;;;;;18.50;12.90;;;;;;;-128.00;-1.00;-1.00;105458;1253;1003264;-81
2023/08/19 02:07:02;;;;;;;13.60;11.10;;;;;;;-128.00;-1.00;-1.00;105450;1253;1003970;-80
2023/08/19 02:09:29;;;;;;;16.20;11.80;;;;;;;-128.00;-1.00;-1.00;105430;1253;1004379;-81
2023/08/19 02:11:56;;;;;;;19.90;12.40;;;;;;;-128.00;-1.00;-1.00;105420;1254;1004091;-80
2023/08/19 02:14:22;;;;;;;15.90;11.90;;;;;;;-128.00;-1.00;-1.00;105434;1254;1003681;-80
2023/08/19 02:16:49;;;;;;;17.20;12.50;;;;;;;-128.00;-1.00;-1.00;105442;1253;1003763;-81
2023/08/19 02:19:15;;;;;;;16.00;13.30;;;;;;;-128.00;-1.00;-1.00;105343;1253;1004419;-81
2023/08/19 02:21:43;;;;;;;33.90;15.30;;;;;;;-128.00;-1.00;-1.00;105495;1253;1004953;-81
2023/08/19 02:24:09;;;;;;;16.40;13.90;;;;;;;-128.00;-1.00;-1.00;105406;1254;1004441;-81
2023/08/19 02:26:36;;;;;;;15.60;12.40;;;;;;;-128.00;-1.00;-1.00;105500;1252;1004001;-81
2023/08/19 02:29:03;;;;;;;19.80;15.70;;;;;;;-128.00;-1.00;-1.00;105525;1253;1004106;-81
2023/08/19 02:31:29;;;;;;;18.90;14.30;;;;;;;-128.00;-1.00;-1.00;105526;1253;1003392;-80
2023/08/19 02:33:56;;;;;;;20.40;13.20;;;;;;;-128.00;-1.00;-1.00;105459;1252;1004217;-80
2023/08/19 02:36:22;;;;;;;16.40;11.60;;;;;;;-128.00;-1.00;-1.00;105514;1254;1004790;-80
2023/08/19 02:38:49;;;;;;;17.10;10.90;;;;;;;-128.00;-1.00;-1.00;105553;1252;1004547;-80
2023/08/19 02:41:15;;;;;;;17.60;12.10;;;;;;;-128.00;-1.00;-1.00;105513;1253;1004263;-80
2023/08/19 02:43:42;;;;;;;18.30;12.80;;;;;;;-128.00;-1.00;-1.00;105560;1253;1004794;-80
2023/08/19 02:46:08;;;;;;;15.70;11.60;;;;;;;-128.00;-1.00;-1.00;105529;1253;1004799;-80
2023/08/19 02:48:35;;;;;;;17.00;12.40;;;;;;;-128.00;-1.00;-1.00;105484;1252;1004094;-80
2023/08/19 02:51:01;;;;;;;18.20;10.80;;;;;;;-128.00;-1.00;-1.00;105539;1252;1003906;-80
2023/08/19 02:53:28;;;;;;;14.90;11.90;;;;;;;-128.00;-1.00;-1.00;105531;1253;1004407;-80
2023/08/19 02:55:55;;;;;;;20.60;13.40;;;;;;;-128.00;-1.00;-1.00;105582;1253;1004691;-81
2023/08/19 02:58:21;;;;;;;23.00;13.30;;;;;;;-128.00;-1.00;-1.00;105496;1253;1004264;-80
2023/08/19 03:00:48;;;;;;;18.90;12.70;;;;;;;-128.00;-1.00;-1.00;105519;1253;1003800;-81
2023/08/19 03:03:14;;;;;;;14.60;11.70;;;;;;;-128.00;-1.00;-1.00;105515;1253;1003967;-80
2023/08/19 03:05:41;;;;;;;13.90;11.20;;;;;;;-128.00;-1.00;-1.00;105416;1254;1004326;-81
2023/08/19 03:08:08;;;;;;;16.50;12.50;;;;;;;-128.00;-1.00;-1.00;105515;1254;1005287;-81
2023/08/19 03:10:35;;;;;;;14.50;11.80;;;;;;;-128.00;-1.00;-1.00;105534;1253;1003809;-81
2023/08/19 03:13:03;;;;;;;15.30;11.30;;;;;;;-128.00;-1.00;-1.00;105561;1252;1004413;-81
2023/08/19 03:15:30;;;;;;;16.20;12.70;;;;;;;-128.00;-1.00;-1.00;105536;1253;1004666;-81
2023/08/19 03:17:56;;;;;;;16.90;12.40;;;;;;;-128.00;-1.00;-1.00;105550;1253;1003810;-80
2023/08/19 03:20:23;;;;;;;18.20;12.60;;;;;;;-128.00;-1.00;-1.00;105538;1253;1004499;-80
2023/08/19 03:22:49;;;;;;;20.40;12.60;;;;;;;-128.00;-1.00;-1.00;105378;1259;1003838;-81
2023/08/19 03:25:16;;;;;;;14.20;12.10;;;;;;;-128.00;-1.00;-1.00;105432;1253;1004833;-80
2023/08/19 03:27:42;;;;;;;18.60;13.10;;;;;;;-128.00;-1.00;-1.00;105416;1258;1003985;-80
2023/08/19 03:30:09;;;;;;;16.40;11.20;;;;;;;-128.00;-1.00;-1.00;105509;1253;1003658;-80
2023/08/19 03:32:36;;;;;;;17.80;12.60;;;;;;;-128.00;-1.00;-1.00;105551;1253;1003757;-80
2023/08/19 03:35:02;;;;;;;15.50;12.50;;;;;;;-128.00;-1.00;-1.00;105402;1253;1004259;-81
2023/08/19 03:37:29;;;;;;;16.90;11.70;;;;;;;-128.00;-1.00;-1.00;105530;1252;1003502;-79
2023/08/19 03:39:55;;;;;;;14.80;10.80;;;;;;;-128.00;-1.00;-1.00;105494;1252;1004127;-80
2023/08/19 03:42:22;;;;;;;17.90;12.40;;;;;;;-128.00;-1.00;-1.00;105549;1253;1004786;-80
2023/08/19 03:44:48;;;;;;;19.00;14.40;;;;;;;-128.00;-1.00;-1.00;105500;1254;1004299;-80
2023/08/19 03:47:15;;;;;;;21.60;13.60;;;;;;;-128.00;-1.00;-1.00;105517;1252;1005041;-80
2023/08/19 03:49:41;;;;;;;25.30;20.40;;;;;;;-128.00;-1.00;-1.00;105485;1253;1004710;-80
2023/08/19 03:52:08;;;;;;;17.30;13.00;;;;;;;-128.00;-1.00;-1.00;105518;1252;1004535;-80
2023/08/19 03:54:35;;;;;;;14.20;11.30;;;;;;;-128.00;-1.00;-1.00;105520;1254;1004719;-80
2023/08/19 03:57:01;;;;;;;14.60;11.50;;;;;;;-128.00;-1.00;-1.00;105362;1253;1003715;-80
2023/08/19 03:59:28;;;;;;;15.20;11.20;;;;;;;-128.00;-1.00;-1.00;105460;1253;1003771;-80
2023/08/19 04:01:54;;;;;;;12.40;10.70;;;;;;;-128.00;-1.00;-1.00;105522;1254;1005380;-80
2023/08/19 04:04:21;;;;;;;31.50;12.40;;;;;;;-128.00;-1.00;-1.00;105511;1253;1004712;-80
2023/08/19 04:06:47;;;;;;;15.80;10.90;;;;;;;-128.00;-1.00;-1.00;105491;1253;1003707;-80
2023/08/19 04:09:14;;;;;;;17.80;11.70;;;;;;;-128.00;-1.00;-1.00;105506;1253;1006628;-80
2023/08/19 04:11:40;;;;;;;17.50;11.20;;;;;;;-128.00;-1.00;-1.00;105475;1253;1003856;-80
2023/08/19 04:14:07;;;;;;;20.90;12.10;;;;;;;-128.00;-1.00;-1.00;105507;1253;1004194;-80
2023/08/19 04:16:33;;;;;;;15.10;11.70;;;;;;;-128.00;-1.00;-1.00;105528;1253;1004711;-80
2023/08/19 04:19:00;;;;;;;16.10;11.50;;;;;;;-128.00;-1.00;-1.00;105501;1253;1004791;-80
2023/08/19 04:21:27;;;;;;;13.00;11.50;;;;;;;-128.00;-1.00;-1.00;105537;1254;1003507;-80
2023/08/19 04:23:53;;;;;;;16.30;12.40;;;;;;;-128.00;-1.00;-1.00;105517;1253;1004114;-80
2023/08/19 04:26:20;;;;;;;17.00;12.30;;;;;;;-128.00;-1.00;-1.00;105489;1253;1003663;-80
2023/08/19 04:28:47;;;;;;;15.60;12.30;;;;;;;-128.00;-1.00;-1.00;105490;1252;1004203;-80
2023/08/19 04:31:13;;;;;;;14.00;12.50;;;;;;;-128.00;-1.00;-1.00;105249;1254;1003536;-80
2023/08/19 04:33:40;;;;;;;15.60;12.00;;;;;;;-128.00;-1.00;-1.00;105425;1253;1004605;-80
2023/08/19 04:36:06;;;;;;;17.30;13.00;;;;;;;-128.00;-1.00;-1.00;105404;1254;1004339;-79
2023/08/19 04:38:33;;;;;;;18.90;12.60;;;;;;;-128.00;-1.00;-1.00;105513;1253;1005662;-80
2023/08/19 04:40:59;;;;;;;15.60;12.70;;;;;;;-128.00;-1.00;-1.00;105506;1253;1003736;-80
2023/08/19 04:43:27;;;;;;;15.40;10.80;;;;;;;-128.00;-1.00;-1.00;105502;1254;1004059;-80
2023/08/19 04:45:54;;;;;;;18.80;12.30;;;;;;;-128.00;-1.00;-1.00;105486;1253;1003735;-80
2023/08/19 04:48:21;;;;;;;13.50;11.30;;;;;;;-128.00;-1.00;-1.00;105536;1253;1005048;-80
2023/08/19 04:50:49;;;;;;;13.90;12.10;;;;;;;-128.00;-1.00;-1.00;105491;1253;1004841;-80
2023/08/19 04:53:15;;;;;;;22.80;12.80;;;;;;;-128.00;-1.00;-1.00;105490;1254;1004425;-80
2023/08/19 04:55:42;;;;;;;16.30;10.70;;;;;;;-128.00;-1.00;-1.00;105497;1252;1003989;-80
2023/08/19 04:58:08;;;;;;;15.80;11.40;;;;;;;-128.00;-1.00;-1.00;105404;1253;1004887;-80
2023/08/19 05:00:36;;;;;;;14.10;11.70;;;;;;;-128.00;-1.00;-1.00;105506;1254;1004414;-80
2023/08/19 05:03:03;;;;;;;20.70;11.90;;;;;;;-128.00;-1.00;-1.00;105511;1253;1004422;-80
2023/08/19 05:05:29;;;;;;;13.10;11.10;;;;;;;-128.00;-1.00;-1.00;105469;1253;1004986;-81
2023/08/19 05:07:56;;;;;;;17.10;11.70;;;;;;;-128.00;-1.00;-1.00;105483;1254;1003903;-80
2023/08/19 05:10:22;;;;;;;15.60;11.60;;;;;;;-128.00;-1.00;-1.00;105484;1254;1004577;-80
2023/08/19 05:12:49;;;;;;;12.70;10.20;;;;;;;-128.00;-1.00;-1.00;105503;1253;1003929;-80
2023/08/19 05:15:15;;;;;;;13.60;11.50;;;;;;;-128.00;-1.00;-1.00;105389;1253;1004468;-80
2023/08/19 05:17:42;;;;;;;19.10;10.70;;;;;;;-128.00;-1.00;-1.00;105397;1254;1004712;-80
2023/08/19 05:20:09;;;;;;;14.70;10.30;;;;;;;-128.00;-1.00;-1.00;105505;1253;1004618;-80
2023/08/19 05:22:35;;;;;;;15.60;11.30;;;;;;;-128.00;-1.00;-1.00;105537;1253;1004058;-80
2023/08/19 05:25:03;;;;;;;12.00;10.80;;;;;;;-128.00;-1.00;-1.00;105462;1254;1004733;-80
2023/08/19 05:27:29;;;;;;;17.30;10.70;;;;;;;-128.00;-1.00;-1.00;105456;1253;1004841;-80
2023/08/19 05:29:56;;;;;;;16.00;10.90;;;;;;;-128.00;-1.00;-1.00;105494;1254;1004989;-80
2023/08/19 05:32:23;;;;;;;14.80;11.90;;;;;;;-128.00;-1.00;-1.00;105500;1254;1004567;-80
2023/08/19 05:34:49;;;;;;;19.50;11.60;;;;;;;-128.00;-1.00;-1.00;105539;1253;1004208;-80
2023/08/19 05:37:16;;;;;;;12.90;11.30;;;;;;;-128.00;-1.00;-1.00;105484;1253;1004772;-80
2023/08/19 05:39:42;;;;;;;16.00;10.40;;;;;;;-128.00;-1.00;-1.00;105499;1254;1004470;-81
2023/08/19 05:42:11;;;;;;;15.90;10.90;;;;;;;-128.00;-1.00;-1.00;105517;1254;1003666;-80
2023/08/19 05:44:38;;;;;;;;;;;;;;;-128.00;-1.00;-1.00;105443;1254;1059659;-80
2023/08/19 05:47:04;;;;;;;12.10;10.20;;;;;;;-128.00;-1.00;-1.00;105492;1254;1003853;-80
2023/08/19 05:49:31;;;;;;;18.60;10.50;;;;;;;-128.00;-1.00;-1.00;105477;1254;1003309;-81
2023/08/19 05:51:57;;;;;;;20.90;10.60;;;;;;;-128.00;-1.00;-1.00;105475;1254;1004588;-81
2023/08/19 05:54:24;;;;;;;13.60;11.00;;;;;;;-128.00;-1.00;-1.00;105435;1253;1005234;-80
2023/08/19 05:56:50;;;;;;;12.40;10.30;;;;;;;-128.00;-1.00;-1.00;105467;1254;1005303;-80
2023/08/19 05:59:17;;;;;;;13.80;11.30;;;;;;;-128.00;-1.00;-1.00;105452;1253;1004439;-80
2023/08/19 06:01:43;;;;;;;15.10;11.20;;;;;;;-128.00;-1.00;-1.00;105471;1254;1004485;-80
2023/08/19 06:04:10;;;;;;;13.70;10.40;;;;;;;-128.00;-1.00;-1.00;105476;1254;1004880;-80
2023/08/19 06:06:36;;;;;;;13.50;10.40;;;;;;;-128.00;-1.00;-1.00;105501;1254;1003252;-80
2023/08/19 06:09:03;;;;;;;16.40;11.20;;;;;;;-128.00;-1.00;-1.00;105463;1253;1004329;-80
2023/08/19 06:11:29;;;;;;;14.70;10.70;;;;;;;-128.00;-1.00;-1.00;105522;1254;1004447;-80
2023/08/19 06:13:58;;;;;;;14.20;11.00;;;;;;;-128.00;-1.00;-1.00;105457;1253;1004809;-80
2023/08/19 06:16:24;;;;;;;11.60;10.10;;;;;;;-128.00;-1.00;-1.00;105479;1256;1046136;-80
2023/08/19 06:18:51;;;;;;;12.80;10.50;;;;;;;-128.00;-1.00;-1.00;105521;1254;1004565;-81
2023/08/19 06:21:17;;;;;;;12.80;10.30;;;;;;;-128.00;-1.00;-1.00;105496;1254;1004093;-81
2023/08/19 06:23:44;;;;;;;16.10;11.00;;;;;;;-128.00;-1.00;-1.00;105505;1254;1004664;-80
2023/08/19 06:26:10;;;;;;;15.10;12.00;;;;;;;-128.00;-1.00;-1.00;105388;1253;1004175;-81
2023/08/19 06:28:37;;;;;;;17.40;11.50;;;;;;;-128.00;-1.00;-1.00;105477;1254;1004946;-81
2023/08/19 06:31:04;;;;;;;16.20;12.30;;;;;;;-128.00;-1.00;-1.00;105409;1252;1004011;-81
2023/08/19 06:33:31;;;;;;;18.70;11.40;;;;;;;-128.00;-1.00;-1.00;105506;1254;1004450;-81
2023/08/19 06:35:59;;;;;;;12.30;10.70;;;;;;;-128.00;-1.00;-1.00;105503;1254;1004533;-81
2023/08/19 06:38:29;;;;;;;12.60;10.50;;;;;;;-128.00;-1.00;-1.00;105375;1258;1003923;-81
2023/08/19 06:41:06;;;;;;;11.00;9.90;;;;;;;-128.00;-1.00;-1.00;105278;1254;1047318;-81
2023/08/19 06:43:33;;;;;;;16.20;10.60;;;;;;;-128.00;-1.00;-1.00;105447;1253;1045873;-81
2023/08/19 06:46:00;;;;;;;11.70;9.50;;;;;;;-128.00;-1.00;-1.00;105406;1252;1004475;-81
2023/08/19 06:48:27;;;;;;;16.60;11.30;;;;;;;-128.00;-1.00;-1.00;105501;1253;1003667;-80
2023/08/19 06:50:54;;;;;;;13.50;11.00;;;;;;;-128.00;-1.00;-1.00;105381;1253;1003900;-81
2023/08/19 06:53:21;;;;;;;15.80;10.90;;;;;;;-128.00;-1.00;-1.00;105445;1253;1005954;-80
2023/08/19 06:56:10;;;;;;;13.40;10.50;;;;;;;-128.00;-1.00;-1.00;105470;1253;1004461;-80
2023/08/19 06:58:40;;;;;;;75.90;63.40;;;;;;;-128.00;-1.00;-1.00;105456;1256;1060348;-81
2023/08/19 07:01:10;;;;;;;19.10;17.10;;;;;;;-128.00;-1.00;-1.00;105494;1253;1058191;-81
2023/08/19 07:03:36;;;;;;;16.40;11.50;;;;;;;-128.00;-1.00;-1.00;105452;1254;1059560;-81
2023/08/19 07:06:03;;;;;;;20.70;9.90;;;;;;;-128.00;-1.00;-1.00;105342;1254;1004585;-81
2023/08/19 07:08:30;;;;;;;29.20;22.90;;;;;;;-128.00;-1.00;-1.00;105394;1254;1004128;-81
2023/08/19 07:11:00;;;;;;;13.70;11.50;;;;;;;-128.00;-1.00;-1.00;105406;1254;1003612;-81
2023/08/19 07:13:28;;;;;;;13.50;10.60;;;;;;;-128.00;-1.00;-1.00;105492;1254;1058689;-81
2023/08/19 07:15:58;;;;;;;14.50;9.90;;;;;;;-128.00;-1.00;-1.00;105467;1254;1003725;-81
2023/08/19 07:18:26;;;;;;;13.80;11.20;;;;;;;-128.00;-1.00;-1.00;105473;1254;1047482;-81
2023/08/19 07:20:54;;;;;;;12.20;9.20;;;;;;;-128.00;-1.00;-1.00;105386;1254;1004233;-82
2023/08/19 07:23:22;;;;;;;11.50;8.80;;;;;;;-128.00;-1.00;-1.00;105383;1255;1005019;-81
2023/08/19 07:25:49;;;;;;;;;;;;;;;-128.00;-1.00;-1.00;105530;1254;1058854;-81
2023/08/19 07:28:19;;;;;;;12.70;8.60;;;;;;;-128.00;-1.00;-1.00;105455;1254;1004712;-82
2023/08/19 07:30:46;;;;;;;9.60;8.60;;;;;;;-128.00;-1.00;-1.00;105407;1259;1045950;-81
2023/08/19 07:33:12;;;;;;;9.40;8.20;;;;;;;-128.00;-1.00;-1.00;105481;1254;1003804;-81
2023/08/19 07:35:39;;;;;;;10.20;8.80;;;;;;;-128.00;-1.00;-1.00;105359;1254;1004002;-81
2023/08/19 07:38:06;;;;;;;8.30;6.90;;;;;;;-128.00;-1.00;-1.00;105450;1254;1005352;-81
2023/08/19 07:40:33;;;;;;;13.10;7.90;;;;;;;-128.00;-1.00;-1.00;105445;1256;1004971;-81
2023/08/19 07:43:00;;;;;;;11.00;7.90;;;;;;;-128.00;-1.00;-1.00;105240;1254;1004141;-81
2023/08/19 07:45:26;;;;;;;8.80;6.50;;;;;;;-128.00;-1.00;-1.00;105255;1255;1004636;-81
2023/08/19 07:47:53;;;;;;;12.20;10.50;;;;;;;-128.00;-1.00;-1.00;105371;1253;1005005;-81
2023/08/19 07:50:20;;;;;;;17.80;9.10;;;;;;;-128.00;-1.00;-1.00;105526;1253;1003720;-81
2023/08/19 07:52:46;;;;;;;12.90;8.90;;;;;;;-128.00;-1.00;-1.00;105343;1254;1004870;-82
2023/08/19 07:55:13;;;;;;;17.20;7.20;;;;;;;-128.00;-1.00;-1.00;105343;1257;1005201;-81
2023/08/19 07:57:39;;;;;;;8.80;7.00;;;;;;;-128.00;-1.00;-1.00;105486;1256;1004214;-81
2023/08/19 08:00:07;;;;;;;14.30;7.10;;;;;;;-128.00;-1.00;-1.00;105477;1252;1003846;-82
2023/08/19 08:02:33;;;;;;;10.60;6.90;;;;;;;-128.00;-1.00;-1.00;105480;1254;1004325;-82
2023/08/19 08:05:02;;;;;;;9.60;6.40;;;;;;;-128.00;-1.00;-1.00;105387;1255;1004528;-82
2023/08/19 08:07:29;;;;;;;6.70;6.00;;;;;;;-128.00;-1.00;-1.00;105362;1259;1004272;-82
2023/08/19 08:09:56;;;;;;;10.30;6.00;;;;;;;-128.00;-1.00;-1.00;105253;1254;1003884;-82
2023/08/19 08:12:23;;;;;;;8.10;5.90;;;;;;;-128.00;-1.00;-1.00;105476;1254;1004638;-82
2023/08/19 08:14:49;;;;;;;7.30;6.00;;;;;;;-128.00;-1.00;-1.00;105478;1254;1004146;-82
2023/08/19 08:17:16;;;;;;;10.00;7.30;;;;;;;-128.00;-1.00;-1.00;105374;1253;1004084;-82
2023/08/19 08:19:42;;;;;;;6.70;5.50;;;;;;;-128.00;-1.00;-1.00;105462;1254;1004934;-82
2023/08/19 08:22:09;;;;;;;9.00;5.00;;;;;;;-128.00;-1.00;-1.00;105480;1253;1003705;-82
2023/08/19 08:24:35;;;;;;;11.80;6.20;;;;;;;-128.00;-1.00;-1.00;105470;1254;1003927;-82
2023/08/19 08:27:02;;;;;;;6.40;5.50;;;;;;;-128.00;-1.00;-1.00;105559;1255;1004784;-82
2023/08/19 08:29:29;;;;;;;9.00;5.40;;;;;;;-128.00;-1.00;-1.00;105584;1254;1004318;-82
2023/08/19 08:31:55;;;;;;;7.10;4.90;;;;;;;-128.00;-1.00;-1.00;105551;1254;1004261;-82
2023/08/19 08:34:22;;;;;;;6.40;4.70;;;;;;;-128.00;-1.00;-1.00;105578;1253;1003383;-82
2023/08/19 08:36:48;;;;;;;6.50;4.80;;;;;;;-128.00;-1.00;-1.00;105572;1254;1004857;-82
2023/08/19 08:39:15;;;;;;;5.70;4.40;;;;;;;-128.00;-1.00;-1.00;105441;1253;1004387;-82
2023/08/19 08:41:42;;;;;;;11.80;4.70;;;;;;;-128.00;-1.00;-1.00;105541;1252;1004336;-82
2023/08/19 08:44:08;;;;;;;6.20;5.00;;;;;;;-128.00;-1.00;-1.00;105570;1255;1003573;-82
2023/08/19 08:46:35;;;;;;;7.70;4.80;;;;;;;-128.00;-1.00;-1.00;105568;1253;1004634;-82
2023/08/19 08:49:02;;;;;;;5.10;4.00;;;;;;;-128.00;-1.00;-1.00;105413;1254;1003792;-82
2023/08/19 08:51:28;;;;;;;10.50;4.40;;;;;;;-128.00;-1.00;-1.00;105317;1260;1005002;-82
2023/08/19 08:53:55;;;;;;;5.10;4.10;;;;;;;-128.00;-1.00;-1.00;105402;1253;1004575;-82
2023/08/19 08:56:22;;;;;;;5.10;4.00;;;;;;;-128.00;-1.00;-1.00;105556;1253;1004802;-82
2023/08/19 08:58:49;;;;;;;13.70;4.70;;;;;;;-128.00;-1.00;-1.00;105613;1254;1005074;-82
2023/08/19 09:01:17;;;;;;;10.70;4.60;;;;;;;-128.00;-1.00;-1.00;105562;1254;1004983;-83
2023/08/19 09:03:45;;;;;;;5.40;4.60;;;;;;;-128.00;-1.00;-1.00;105606;1254;1005221;-83
2023/08/19 09:06:15;;;;;;;9.50;4.40;;;;;;;-128.00;-1.00;-1.00;105554;1254;1059886;-83
2023/08/19 09:09:02;;;;;;;4.90;3.90;;;;;;;-128.00;-1.00;-1.00;105510;1254;1044567;-83
2023/08/19 09:11:36;;;;;;;5.30;3.80;;;;;;;-128.00;-1.00;-1.00;105582;1253;1048066;-83
2023/08/19 09:14:22;;;;;;;5.60;4.30;;;;;;;-128.00;-1.00;-1.00;105493;1254;1060727;-83
2023/08/19 09:16:49;;;;;;;4.70;4.10;;;;;;;-128.00;-1.00;-1.00;105454;1254;1058234;-83
2023/08/19 09:19:15;;;;;;;6.10;3.60;;;;;;;-128.00;-1.00;-1.00;105245;1254;1004824;-83
2023/08/19 09:21:42;;;;;;;4.30;3.90;;;;;;;-128.00;-1.00;-1.00;105466;1253;1003392;-83
2023/08/19 09:24:09;;;;;;;4.50;4.00;;;;;;;-128.00;-1.00;-1.00;105488;1254;1004010;-83
2023/08/19 09:26:36;;;;;;;9.70;4.90;;;;;;;-128.00;-1.00;-1.00;105474;1254;1004876;-83
2023/08/19 09:29:04;;;;;;;7.80;4.40;;;;;;;-128.00;-1.00;-1.00;105389;1252;1004344;-83
2023/08/19 09:31:31;;;;;;;10.20;4.60;;;;;;;-128.00;-1.00;-1.00;105361;1253;1003637;-83
2023/08/19 09:33:58;;;;;;;8.50;4.60;;;;;;;-128.00;-1.00;-1.00;105484;1253;1003837;-83
2023/08/19 09:36:25;;;;;;;5.50;4.20;;;;;;;-128.00;-1.00;-1.00;105525;1254;1004566;-83
2023/08/19 09:38:55;;;;;;;5.80;3.80;;;;;;;-128.00;-1.00;-1.00;105498;1253;1003506;-83
2023/08/19 09:41:29;;;;;;;11.50;4.70;;;;;;;-128.00;-1.00;-1.00;105509;1253;1057998;-83
2023/08/19 09:43:57;;;;;;;6.60;4.20;;;;;;;-128.00;-1.00;-1.00;105456;1254;1059219;-83
2023/08/19 09:46:33;;;;;;;5.80;3.70;;;;;;;-128.00;-1.00;-1.00;105279;1254;1004814;-84
2023/08/19 09:49:00;;;;;;;4.70;3.90;;;;;;;-128.00;-1.00;-1.00;105528;1254;1048082;-83
2023/08/19 09:51:27;;;;;;;114.30;9.70;;;;;;;-128.00;-1.00;-1.00;105543;1252;1005304;-83
2023/08/19 09:53:55;;;;;;;7.20;4.00;;;;;;;-128.00;-1.00;-1.00;105407;1253;1004481;-83
2023/08/19 09:56:24;;;;;;;4.50;3.80;;;;;;;-128.00;-1.00;-1.00;105485;1254;1005533;-83
2023/08/19 09:58:53;;;;;;;8.60;3.90;;;;;;;-128.00;-1.00;-1.00;105334;1254;1044800;-83
2023/08/19 10:01:22;;;;;;;12.00;4.00;;;;;;;-128.00;-1.00;-1.00;105471;1254;1004046;-83
2023/08/19 10:03:49;;;;;;;7.50;4.50;;;;;;;-128.00;-1.00;-1.00;105497;1253;1060240;-83
2023/08/19 10:06:16;;;;;;;5.80;4.00;;;;;;;-128.00;-1.00;-1.00;105508;1254;1003653;-83
2023/08/19 10:08:44;;;;;;;7.60;3.90;;;;;;;-128.00;-1.00;-1.00;105453;1253;1003746;-83
2023/08/19 10:11:12;;;;;;;7.30;3.90;;;;;;;-128.00;-1.00;-1.00;105320;1253;1004746;-83
2023/08/19 10:13:39;;;;;;;5.80;3.70;;;;;;;-128.00;-1.00;-1.00;105364;1253;1005311;-83
2023/08/19 10:16:05;;;;;;;5.50;3.90;;;;;;;-128.00;-1.00;-1.00;105353;1257;1003836;-83
2023/08/19 10:18:35;;;;;;;8.10;4.30;;;;;;;-128.00;-1.00;-1.00;105234;1254;1005221;-84
2023/08/19 10:21:05;;;;;;;4.90;4.40;;;;;;;-128.00;-1.00;-1.00;105307;1253;1059964;-83
2023/08/19 10:23:31;;;;;;;5.70;3.90;;;;;;;-128.00;-1.00;-1.00;105456;1254;1045150;-83
2023/08/19 10:25:58;;;;;;;15.70;5.50;;;;;;;-128.00;-1.00;-1.00;105472;1253;1004990;-83
2023/08/19 10:28:27;;;;;;;9.80;4.80;;;;;;;-128.00;-1.00;-1.00;105509;1254;1004068;-82
2023/08/19 10:31:06;;;;;;;7.40;4.90;;;;;;;-128.00;-1.00;-1.00;105506;1254;1057636;-83
2023/08/19 10:33:44;;;;;;;6.20;4.20;;;;;;;-128.00;-1.00;-1.00;105486;1254;1059110;-82
2023/08/19 10:36:14;;;;;;;9.10;6.70;;;;;;;-128.00;-1.00;-1.00;105377;1254;1044645;-82
2023/08/19 10:38:57;;;;;;;121.50;22.20;;;;;;;-128.00;-1.00;-1.00;105482;1253;1047349;-82
2023/08/19 10:41:28;;;;;;;27.80;9.30;;;;;;;-128.00;-1.00;-1.00;105512;1253;1060326;-82
2023/08/19 10:44:07;;;;;;;25.00;8.00;;;;;;;-128.00;-1.00;-1.00;105522;1254;1057329;-82
2023/08/19 10:46:37;;;;;;;18.50;6.20;;;;;;;-128.00;-1.00;-1.00;105490;1253;1059515;-82
2023/08/19 10:49:13;;;;;;;8.50;6.30;;;;;;;-128.00;-1.00;-1.00;105467;1253;1045557;-82
2023/08/19 10:51:57;;;;;;;12.70;7.20;;;;;;;-128.00;-1.00;-1.00;105499;1254;1046412;-82
2023/08/19 10:54:26;;;;;;;10.00;7.10;;;;;;;-128.00;-1.00;-1.00;105534;1254;1061659;-82
2023/08/19 10:57:15;;;;;;;9.50;7.00;;;;;;;-128.00;-1.00;-1.00;105515;1253;1059036;-82
2023/08/19 10:59:43;;;;;;;9.30;5.80;;;;;;;-128.00;-1.00;-1.00;105505;1253;1060737;-82
2023/08/19 11:02:09;;;;;;;11.80;6.10;;;;;;;-128.00;-1.00;-1.00;105507;1254;1004393;-82
2023/08/19 11:04:41;;;;;;;8.60;5.60;;;;;;;-128.00;-1.00;-1.00;105524;1253;1004874;-82
2023/08/19 11:07:07;;;;;;;8.00;5.50;;;;;;;-128.00;-1.00;-1.00;105496;1254;1059977;-82
2023/08/19 11:09:34;;;;;;;7.60;6.20;;;;;;;-128.00;-1.00;-1.00;105527;1253;1004349;-82